map of PSO home
Great Circle Mapper logo
PSO - Airport
Location
City:  Pasto, Colombia
Name:Antonio Nariņo
ICAO / IATA:SKPS / PSO

Details
Type:Airport (Aerodrome, Airfield)
Latitude:1°23'46"N (1.396247)
Longitude:77°17'29"W (-77.291477)
Datum:WGS 1984
Elevation:5951 ft (1814 m)
Runways:1
Longest:7585 × 130 ft (2312 × 39.5 m), paved

Time
Time Zone:UTC-5
Local Time:

Weather
METAR:SKPS 231200Z 20007KT 9000 SCT020 SCT080 15/13 A3018

Related Locations
Nearby:
Farthest:DJB: 12381 mi / 19926 km
Jambi [Suntan Thaha Airport, ID

Find:

   beyond  
but within

Other Information
Maps:
NOTAMs:
Links:
Sources:

  
flag of Colombia   

Sectional Chart

Flight Planning
at skyvector.com

Satellite Image

Google Maps Satellite View

 

Copyright © 2004-2014 Karl L. Swartz. All rights reserved.
The Great Circle Mapper name and logo are trademarks of the Great Circle Mapper.
All other trademarks mentioned herein belong to their respective owners.
Please see credits for attibutions and further copyright information.

  Follow gcmap on Facebook Follow gcmap on Twitter

hCard Microformat

Geo Microformat